Time;durP1;ratioP1;P1;durP2;ratioP2;P2;SDS_P1;SDS_P2;PMS_P1;PMS_P2;Temp;Humidity;BMP_temperature;BMP_pressure;BME280_temperature;BME280_humidity;BME280_pressure;Samples;Min_cycle;Max_cycle;Signal;HPM_P1;HPM_P2
2020/12/22 06:01:47;;;;;;;1.37;1.27;;;10.00;97.30;;;;;;5382143;23;20481;-73
2020/12/22 06:04:16;;;;;;;1.20;1.10;;;10.00;97.30;;;;;;4899524;29;20414;-72
2020/12/22 06:06:43;;;;;;;2.07;1.27;;;10.10;97.30;;;;;;4899048;29;20424;-71
2020/12/22 06:09:08;;;;;;;1.13;1.10;;;10.10;97.30;;;;;;4899158;29;20441;-72
2020/12/22 06:11:35;;;;;;;1.20;1.10;;;10.10;97.30;;;;;;4899147;29;21009;-73
2020/12/22 06:14:07;;;;;;;1.30;1.10;;;10.10;97.30;;;;;;4899268;29;20188;-73
2020/12/22 06:16:37;;;;;;;1.07;1.07;;;10.10;97.30;;;;;;4901386;29;20839;-77
2020/12/22 06:19:07;;;;;;;1.10;1.00;;;10.20;97.30;;;;;;4899810;29;20489;-72
2020/12/22 06:21:33;;;;;;;1.83;1.13;;;10.30;97.30;;;;;;4899835;29;20465;-72
2020/12/22 06:23:59;;;;;;;1.40;1.10;;;10.30;97.30;;;;;;4898612;29;20468;-72
2020/12/22 06:26:24;;;;;;;2.50;1.30;;;10.30;97.30;;;;;;4898816;29;20182;-73
2020/12/22 06:28:50;;;;;;;1.30;1.20;;;10.30;97.30;;;;;;4898726;29;20181;-72
2020/12/22 06:31:20;;;;;;;1.10;1.07;;;10.30;97.30;;;;;;4899932;29;20585;-73
2020/12/22 06:33:46;;;;;;;1.93;1.20;;;10.40;97.30;;;;;;4899688;29;20189;-73
2020/12/22 06:36:13;;;;;;;1.47;1.00;;;10.40;97.30;;;;;;4898341;29;20472;-72
2020/12/22 06:39:02;;;;;;;1.30;1.20;;;10.40;97.30;;;;;;4898253;29;20468;-72
2020/12/22 06:41:33;;;;;;;1.17;1.10;;;10.40;97.30;;;;;;4898629;29;20566;-72
2020/12/22 06:44:18;;;;;;;1.30;1.20;;;10.40;97.30;;;;;;4898046;29;20865;-72
2020/12/22 06:46:45;;;;;;;1.17;1.13;;;10.50;97.30;;;;;;4899492;29;20791;-73
2020/12/22 06:49:11;;;;;;;1.20;1.10;;;10.60;97.30;;;;;;4898217;29;20949;-73
2020/12/22 06:51:41;;;;;;;1.10;1.10;;;10.60;97.30;;;;;;4897984;29;20449;-73
2020/12/22 06:54:12;;;;;;;1.63;1.10;;;10.70;97.30;;;;;;4896939;29;20489;-72
2020/12/22 06:56:40;;;;;;;1.13;1.13;;;10.70;97.30;;;;;;4902358;29;20477;-72
2020/12/22 06:59:07;;;;;;;1.30;1.20;;;10.70;97.30;;;;;;4905982;29;20481;-71
2020/12/22 07:01:37;;;;;;;1.40;1.20;;;10.70;97.30;;;;;;4898285;29;20461;-71
2020/12/22 07:04:20;;;;;;;1.33;1.33;;;10.70;97.30;;;;;;4898324;29;20481;-72
2020/12/22 07:06:50;;;;;;;1.43;1.10;;;10.70;97.30;;;;;;4898138;29;20481;-71
2020/12/22 07:09:20;;;;;;;1.10;1.10;;;10.70;97.30;;;;;;4898251;29;20429;-71
2020/12/22 07:11:47;;;;;;;1.27;1.20;;;10.70;97.30;;;;;;4898058;29;20970;-72
2020/12/22 07:14:15;;;;;;;1.20;1.10;;;10.70;97.30;;;;;;4899238;29;20418;-71
2020/12/22 07:16:55;;;;;;;2.40;1.20;;;10.70;97.30;;;;;;4898013;29;20556;-72
2020/12/22 07:19:28;;;;;;;1.43;1.27;;;10.70;97.30;;;;;;4897700;29;20421;-72
2020/12/22 07:21:55;;;;;;;1.27;1.10;;;10.70;97.30;;;;;;4897746;29;20441;-72
2020/12/22 07:24:21;;;;;;;1.20;1.13;;;10.70;97.30;;;;;;4897943;29;20421;-72
2020/12/22 07:26:47;;;;;;;1.90;1.30;;;10.70;97.30;;;;;;4897888;29;20489;-72
2020/12/22 07:29:13;;;;;;;1.20;1.10;;;10.80;97.30;;;;;;4899209;29;20822;-72
2020/12/22 07:31:41;;;;;;;1.40;1.30;;;10.80;97.30;;;;;;4898608;29;20205;-72
2020/12/22 07:34:07;;;;;;;1.23;1.20;;;10.90;97.30;;;;;;4897501;29;20417;-71
2020/12/22 07:36:33;;;;;;;1.20;1.17;;;11.00;97.30;;;;;;4897448;29;20465;-72
2020/12/22 07:39:23;;;;;;;1.50;1.33;;;11.00;97.30;;;;;;4898571;29;20201;-71
2020/12/22 07:41:52;;;;;;;1.20;1.10;;;11.00;97.30;;;;;;4896769;29;20449;-73
2020/12/22 07:44:22;;;;;;;1.27;1.10;;;11.10;97.30;;;;;;4895361;29;21594;-72
2020/12/22 07:46:54;;;;;;;1.67;1.30;;;11.20;97.30;;;;;;4897458;29;20437;-72
2020/12/22 07:49:20;;;;;;;2.23;1.30;;;11.30;97.30;;;;;;4897701;29;20430;-71
2020/12/22 07:51:47;;;;;;;1.40;1.30;;;11.30;97.30;;;;;;4897307;29;20453;-71
2020/12/22 07:54:15;;;;;;;1.10;1.00;;;11.40;97.30;;;;;;4898794;29;20426;-72
2020/12/22 07:56:45;;;;;;;1.60;1.07;;;11.40;97.30;;;;;;4897443;29;20998;-71
2020/12/22 07:59:15;;;;;;;1.60;1.47;;;11.50;97.30;;;;;;4897118;29;20508;-72
2020/12/22 08:01:44;;;;;;;1.60;1.30;;;11.60;97.30;;;;;;4897431;29;20457;-72
2020/12/22 08:04:23;;;;;;;2.97;1.00;;;11.60;97.30;;;;;;4896047;29;20410;-73
2020/12/22 08:07:05;;;;;;;1.87;1.30;;;11.70;97.30;;;;;;4894999;29;20508;-72
2020/12/22 08:09:34;;;;;;;1.43;1.17;;;11.70;97.30;;;;;;4898532;29;20410;-71
2020/12/22 08:12:02;;;;;;;1.20;1.13;;;11.70;97.30;;;;;;4898139;29;20434;-72
2020/12/22 08:14:28;;;;;;;1.20;1.20;;;11.70;97.30;;;;;;4896026;29;20447;-71
2020/12/22 08:17:06;;;;;;;1.60;1.47;;;11.70;97.30;;;;;;4896727;29;20473;-71
2020/12/22 08:19:39;;;;;;;1.23;1.07;;;11.80;97.30;;;;;;4898866;29;20437;-71
2020/12/22 08:22:07;;;;;;;1.60;1.10;;;11.80;97.30;;;;;;4898504;29;20441;-70
2020/12/22 08:24:37;;;;;;;1.20;1.10;;;11.80;97.30;;;;;;4897503;29;20430;-70
2020/12/22 08:27:05;;;;;;;1.13;1.07;;;11.90;97.30;;;;;;4896630;29;20444;-69
2020/12/22 08:29:31;;;;;;;2.20;1.20;;;11.80;97.30;;;;;;4898466;29;20423;-72
2020/12/22 08:32:01;;;;;;;1.57;1.37;;;11.90;97.30;;;;;;4897822;29;20496;-72
2020/12/22 08:34:29;;;;;;;1.87;1.33;;;11.90;97.30;;;;;;4898931;29;20480;-72
2020/12/22 08:36:55;;;;;;;1.67;1.57;;;11.90;97.30;;;;;;4896490;29;20991;-72
2020/12/22 08:39:27;;;;;;;1.40;1.20;;;11.90;97.30;;;;;;4897013;29;20915;-72
2020/12/22 08:41:57;;;;;;;1.50;1.40;;;11.90;97.30;;;;;;4897260;29;20445;-70
2020/12/22 08:44:26;;;;;;;1.23;1.10;;;11.90;97.30;;;;;;4896045;29;20398;-71
2020/12/22 08:46:54;;;;;;;1.20;1.10;;;11.90;97.30;;;;;;4894268;29;20430;-72
2020/12/22 08:49:21;;;;;;;1.07;0.90;;;12.00;97.30;;;;;;4897825;29;20540;-71
2020/12/22 08:51:47;;;;;;;1.20;1.00;;;12.00;97.30;;;;;;4898046;29;20943;-71
2020/12/22 08:54:14;;;;;;;1.20;1.10;;;12.00;97.30;;;;;;4898023;29;20421;-72
2020/12/22 08:56:41;;;;;;;3.87;1.30;;;12.10;97.30;;;;;;4896521;29;20469;-70
2020/12/22 08:59:11;;;;;;;1.83;1.20;;;12.20;97.30;;;;;;4896881;29;20429;-71
2020/12/22 09:01:46;;;;;;;1.90;1.20;;;12.20;97.30;;;;;;4896306;29;20464;-71
2020/12/22 09:04:13;;;;;;;1.47;1.40;;;12.30;97.30;;;;;;4897421;29;20437;-71
2020/12/22 09:06:41;;;;;;;1.47;1.40;;;12.30;97.30;;;;;;4896959;29;20569;-70
2020/12/22 09:09:10;;;;;;;1.57;1.40;;;12.30;97.30;;;;;;4897977;29;20786;-70
2020/12/22 09:11:36;;;;;;;1.73;1.20;;;12.40;97.30;;;;;;4897809;29;20444;-71
2020/12/22 09:14:06;;;;;;;1.93;1.30;;;12.40;97.30;;;;;;4896876;29;20950;-70
2020/12/22 09:16:51;;;;;;;2.70;1.30;;;12.40;97.30;;;;;;4899031;29;20505;-71
2020/12/22 09:19:21;;;;;;;1.33;1.30;;;12.40;97.30;;;;;;4900227;29;20421;-71
2020/12/22 09:21:47;;;;;;;1.53;1.40;;;12.50;97.30;;;;;;4901436;29;20465;-71
2020/12/22 09:24:18;;;;;;;2.43;1.10;;;12.50;97.30;;;;;;4900112;29;20426;-71
2020/12/22 09:26:58;;;;;;;3.50;1.20;;;12.60;97.30;;;;;;4900096;29;20427;-71
2020/12/22 09:29:27;;;;;;;2.00;1.20;;;12.60;97.30;;;;;;4901407;29;20427;-72
2020/12/22 09:31:53;;;;;;;1.30;1.20;;;12.60;97.30;;;;;;4899318;29;20441;-71
2020/12/22 09:34:20;;;;;;;2.37;1.40;;;12.60;97.30;;;;;;4899263;29;20429;-74
2020/12/22 09:36:54;;;;;;;2.90;1.50;;;12.70;97.30;;;;;;4900558;29;20568;-71
2020/12/22 09:39:21;;;;;;;2.43;1.57;;;12.80;97.30;;;;;;4899634;29;20425;-71
2020/12/22 09:41:47;;;;;;;1.60;1.60;;;12.90;97.30;;;;;;4899467;29;20524;-71
2020/12/22 09:44:13;;;;;;;1.63;1.20;;;12.90;97.30;;;;;;4899442;29;21003;-71
2020/12/22 09:46:39;;;;;;;1.90;1.60;;;13.00;97.30;;;;;;4900923;29;20214;-72
2020/12/22 09:49:05;;;;;;;2.30;1.80;;;13.00;97.30;;;;;;4899682;29;20429;-73
2020/12/22 09:51:31;;;;;;;1.63;1.27;;;13.00;97.30;;;;;;4900673;29;20209;-73
2020/12/22 09:53:57;;;;;;;2.27;1.30;;;13.00;97.30;;;;;;4899040;29;20425;-73
2020/12/22 09:56:23;;;;;;;2.40;1.20;;;13.10;97.30;;;;;;4899359;29;20475;-73
2020/12/22 09:58:48;;;;;;;1.50;1.40;;;13.10;97.30;;;;;;4899054;29;20193;-72
2020/12/22 10:01:20;;;;;;;1.70;1.60;;;13.10;97.30;;;;;;4900301;29;20218;-71
2020/12/22 10:03:46;;;;;;;1.67;1.33;;;13.20;97.30;;;;;;4898706;29;20237;-71
2020/12/22 10:06:22;;;;;;;1.67;1.47;;;13.20;97.30;;;;;;4899156;29;20445;-72
2020/12/22 10:08:49;;;;;;;3.80;2.00;;;13.20;97.30;;;;;;4899298;29;20441;-71
2020/12/22 10:11:16;;;;;;;3.73;2.27;;;13.10;97.30;;;;;;4899022;29;20457;-71
2020/12/22 10:13:41;;;;;;;4.37;2.00;;;13.10;97.30;;;;;;4899956;29;20497;-71
2020/12/22 10:16:09;;;;;;;3.10;1.90;;;13.30;97.30;;;;;;4900229;29;20508;-71
2020/12/22 10:18:35;;;;;;;1.80;1.80;;;13.30;97.30;;;;;;4900229;29;20205;-71
2020/12/22 10:21:13;;;;;;;3.50;1.63;;;13.30;97.30;;;;;;4899115;29;20448;-70
2020/12/22 10:23:40;;;;;;;3.30;2.30;;;13.30;97.30;;;;;;4898890;29;20425;-71
2020/12/22 10:26:11;;;;;;;2.20;1.53;;;13.30;97.30;;;;;;4896609;29;20422;-72
2020/12/22 10:28:39;;;;;;;1.97;1.30;;;13.30;97.30;;;;;;4897478;29;20456;-71
2020/12/22 10:31:06;;;;;;;2.27;1.50;;;13.40;97.30;;;;;;4899777;29;20521;-70
2020/12/22 10:33:32;;;;;;;2.20;1.40;;;13.40;97.30;;;;;;4897774;29;20995;-70
2020/12/22 10:35:58;;;;;;;2.00;1.60;;;13.50;97.30;;;;;;4898213;29;20421;-70
2020/12/22 10:38:24;;;;;;;1.83;1.43;;;13.60;97.30;;;;;;4899279;29;20709;-70
2020/12/22 10:40:50;;;;;;;2.07;1.53;;;13.70;97.30;;;;;;4898471;29;20442;-70
2020/12/22 10:43:16;;;;;;;1.50;1.40;;;13.70;97.30;;;;;;4899683;29;20418;-70
2020/12/22 10:45:42;;;;;;;1.67;1.50;;;13.70;97.30;;;;;;4899614;29;20413;-70
2020/12/22 10:48:08;;;;;;;3.17;1.47;;;13.70;97.30;;;;;;4898199;29;20481;-70
2020/12/22 10:50:38;;;;;;;3.47;1.40;;;13.70;97.30;;;;;;4899511;29;20266;-70
2020/12/22 10:53:07;;;;;;;3.57;1.40;;;13.70;97.30;;;;;;4899317;29;20489;-70
2020/12/22 10:55:34;;;;;;;1.37;1.27;;;13.70;97.30;;;;;;4898347;29;20421;-70
2020/12/22 10:57:59;;;;;;;1.20;1.20;;;13.70;97.30;;;;;;4899165;29;20485;-72
2020/12/22 11:00:26;;;;;;;1.63;1.50;;;13.70;97.30;;;;;;4898447;29;20437;-72
2020/12/22 11:02:57;;;;;;;1.70;1.53;;;13.70;97.30;;;;;;4897845;29;20856;-72
2020/12/22 11:08:09;;;;;;;1.77;1.43;;;13.80;97.30;;;;;;4898989;29;20413;-72
2020/12/22 11:10:35;;;;;;;1.27;1.23;;;13.80;97.30;;;;;;4898987;29;20440;-72
2020/12/22 11:13:01;;;;;;;2.60;1.30;;;13.90;97.30;;;;;;4898565;29;20785;-73
2020/12/22 11:15:27;;;;;;;1.20;1.10;;;13.90;97.30;;;;;;4898515;29;20425;-72
2020/12/22 11:17:53;;;;;;;1.37;1.03;;;14.00;97.30;;;;;;4897142;29;20484;-73
2020/12/22 11:20:19;;;;;;;1.53;1.33;;;14.10;97.30;;;;;;4897747;29;20240;-72
2020/12/22 11:22:49;;;;;;;2.53;1.50;;;14.10;97.30;;;;;;4899079;29;20192;-72
2020/12/22 11:25:18;;;;;;;2.13;1.30;;;14.20;97.30;;;;;;4898956;29;20417;-73
2020/12/22 11:27:44;;;;;;;1.73;1.30;;;14.20;97.30;;;;;;4897417;29;20468;-72
2020/12/22 11:30:10;;;;;;;1.50;1.20;;;14.30;97.30;;;;;;4898486;29;20927;-72
2020/12/22 11:32:36;;;;;;;1.20;1.20;;;14.40;97.30;;;;;;4897376;29;20441;-73
2020/12/22 11:35:06;;;;;;;4.30;1.10;;;14.40;97.30;;;;;;4897454;29;20470;-73
2020/12/22 11:37:31;;;;;;;1.60;1.00;;;14.40;97.30;;;;;;4880151;29;20202;-73
2020/12/22 11:39:57;;;;;;;5.30;2.10;;;14.50;97.30;;;;;;4880522;29;20418;-72
2020/12/22 11:42:23;;;;;;;1.50;1.23;;;14.40;97.30;;;;;;4891322;29;20554;-73
2020/12/22 11:44:48;;;;;;;1.60;1.10;;;14.50;97.30;;;;;;4896867;29;20177;-73
2020/12/22 11:47:15;;;;;;;2.30;1.27;;;14.50;97.30;;;;;;4898675;29;20212;-73
2020/12/22 11:49:42;;;;;;;2.40;1.50;;;14.40;97.30;;;;;;4898883;29;20193;-73
2020/12/22 11:52:08;;;;;;;1.67;1.40;;;14.40;97.30;;;;;;4898412;29;20536;-74
2020/12/22 11:54:35;;;;;;;1.87;1.40;;;14.40;97.30;;;;;;4896930;29;20521;-73
2020/12/22 11:57:01;;;;;;;1.20;1.10;;;14.40;97.30;;;;;;4897110;29;20557;-74
2020/12/22 11:59:27;;;;;;;1.60;1.50;;;14.50;97.30;;;;;;4895751;29;20414;-75
2020/12/22 12:01:53;;;;;;;1.50;1.20;;;14.50;97.30;;;;;;4899254;29;20460;-74
2020/12/22 12:04:18;;;;;;;2.47;1.27;;;14.60;97.30;;;;;;4897465;29;20241;-75
2020/12/22 12:06:46;;;;;;;1.50;1.40;;;14.60;97.30;;;;;;4898730;29;20201;-74
2020/12/22 12:09:12;;;;;;;1.50;1.40;;;14.70;97.30;;;;;;4898797;29;20177;-75
2020/12/22 12:11:38;;;;;;;1.30;1.30;;;14.70;97.30;;;;;;4882252;29;20504;-75
2020/12/22 12:14:04;;;;;;;1.77;1.47;;;14.70;97.30;;;;;;4898340;29;20460;-75
2020/12/22 12:16:30;;;;;;;1.73;1.37;;;14.80;97.30;;;;;;4895843;29;20500;-75
2020/12/22 12:18:56;;;;;;;1.53;1.30;;;14.80;97.30;;;;;;4901075;29;20177;-75
2020/12/22 12:21:22;;;;;;;1.40;1.30;;;14.90;97.30;;;;;;4912536;29;20453;-76
2020/12/22 12:23:48;;;;;;;1.77;1.17;;;15.00;97.30;;;;;;4900745;29;20505;-75
2020/12/22 12:26:14;;;;;;;1.50;1.20;;;15.00;97.30;;;;;;4897606;29;20597;-76
2020/12/22 12:28:43;;;;;;;2.10;1.40;;;15.10;97.30;;;;;;4896209;29;20250;-75
2020/12/22 12:31:17;;;;;;;1.10;1.03;;;15.20;97.30;;;;;;4898470;29;20607;-75
2020/12/22 12:33:43;;;;;;;5.00;1.27;;;15.30;97.30;;;;;;4896639;29;20481;-76
2020/12/22 12:36:12;;;;;;;2.77;1.57;;;15.20;97.30;;;;;;4896807;29;20425;-76
2020/12/22 12:38:38;;;;;;;1.30;1.20;;;15.00;97.30;;;;;;4896460;29;20437;-76
2020/12/22 12:41:04;;;;;;;2.07;1.60;;;14.90;97.30;;;;;;4896761;29;20437;-76
2020/12/22 12:43:30;;;;;;;1.30;1.30;;;15.20;97.30;;;;;;4897444;29;20944;-75
2020/12/22 12:45:56;;;;;;;1.37;1.33;;;15.10;97.30;;;;;;4897306;29;20422;-76
2020/12/22 12:48:22;;;;;;;1.70;1.30;;;14.90;97.30;;;;;;4896038;29;20429;-76
2020/12/22 12:50:48;;;;;;;1.77;1.20;;;15.00;97.30;;;;;;4896756;29;20212;-75
2020/12/22 12:53:13;;;;;;;2.53;1.60;;;15.00;97.30;;;;;;4901004;29;20181;-76
2020/12/22 12:55:39;;;;;;;2.10;1.30;;;15.20;97.30;;;;;;4900592;29;20187;-76
2020/12/22 12:58:05;;;;;;;1.40;1.30;;;15.50;97.30;;;;;;4900158;29;20394;-76
2020/12/22 13:00:30;;;;;;;17.90;2.30;;;15.60;97.30;;;;;;4900607;29;20253;-76
2020/12/22 13:02:56;;;;;;;1.67;1.10;;;15.50;97.30;;;;;;4900363;29;20189;-75
2020/12/22 13:05:22;;;;;;;1.57;1.40;;;15.40;97.30;;;;;;4900185;29;20188;-76
2020/12/22 13:07:47;;;;;;;1.93;1.43;;;15.30;97.30;;;;;;4900035;29;20662;-75
2020/12/22 13:10:13;;;;;;;4.80;1.50;;;15.30;97.30;;;;;;4900298;29;20205;-75
2020/12/22 13:12:39;;;;;;;1.83;1.53;;;15.20;97.30;;;;;;4900238;29;20224;-75
2020/12/22 13:15:05;;;;;;;3.20;1.20;;;15.10;97.30;;;;;;4900130;29;20418;-77
2020/12/22 13:17:31;;;;;;;2.87;1.30;;;15.10;97.30;;;;;;4901417;29;20574;-76
2020/12/22 13:19:57;;;;;;;1.50;1.37;;;15.00;97.30;;;;;;4901451;29;20177;-76
2020/12/22 13:22:22;;;;;;;1.47;1.10;;;15.00;97.30;;;;;;4899945;29;20450;-75
2020/12/22 13:24:48;;;;;;;3.80;1.33;;;15.00;97.30;;;;;;4899793;29;20651;-75
2020/12/22 13:27:14;;;;;;;1.60;1.60;;;15.10;97.30;;;;;;4900152;29;20189;-75
2020/12/22 13:29:39;;;;;;;3.10;1.40;;;15.00;97.30;;;;;;4900855;29;20200;-75
2020/12/22 13:32:05;;;;;;;2.00;1.67;;;15.00;97.30;;;;;;4899947;29;20208;-75
2020/12/22 13:34:31;;;;;;;1.70;1.47;;;15.00;97.30;;;;;;4899742;29;20678;-76
2020/12/22 13:36:56;;;;;;;2.00;1.43;;;15.00;97.30;;;;;;4899508;29;20582;-76
2020/12/22 13:39:22;;;;;;;8.83;1.70;;;15.00;97.30;;;;;;4901043;29;20180;-76
2020/12/22 13:41:50;;;;;;;1.93;1.50;;;15.00;97.30;;;;;;4899886;29;20201;-75
2020/12/22 13:44:15;;;;;;;2.43;1.83;;;15.00;97.30;;;;;;4899718;29;20422;-76
2020/12/22 13:46:41;;;;;;;1.70;1.30;;;15.00;97.30;;;;;;4899694;29;20469;-75
2020/12/22 13:49:07;;;;;;;2.10;1.40;;;15.00;97.30;;;;;;4899626;29;20180;-75
2020/12/22 13:51:34;;;;;;;1.83;1.30;;;15.10;97.30;;;;;;4899372;29;20292;-75
2020/12/22 13:53:59;;;;;;;2.33;1.63;;;15.10;97.30;;;;;;4899511;29;20931;-77
2020/12/22 13:56:25;;;;;;;4.50;1.80;;;15.10;97.30;;;;;;4899843;29;20484;-75
2020/12/22 13:58:51;;;;;;;2.33;1.40;;;15.20;97.30;;;;;;4899259;29;20189;-75
2020/12/22 14:01:23;;;;;;;2.50;1.27;;;15.40;97.30;;;;;;4900497;29;20208;-76
2020/12/22 14:03:49;;;;;;;1.33;1.27;;;15.30;97.30;;;;;;4895039;29;20446;-76
2020/12/22 14:06:14;;;;;;;2.00;1.50;;;15.20;97.30;;;;;;4895913;29;20929;-75
2020/12/22 14:08:40;;;;;;;1.40;1.20;;;15.10;97.30;;;;;;4881910;29;20170;-75
2020/12/22 14:11:06;;;;;;;3.83;1.57;;;15.00;97.30;;;;;;4881787;29;20204;-77
2020/12/22 14:13:32;;;;;;;1.70;1.30;;;15.00;97.30;;;;;;4896129;29;20174;-75
2020/12/22 14:15:57;;;;;;;1.30;1.30;;;15.00;97.30;;;;;;4895963;29;20181;-75
2020/12/22 14:18:23;;;;;;;2.20;1.33;;;15.00;97.30;;;;;;4880345;29;20209;-75
2020/12/22 14:20:49;;;;;;;2.93;1.33;;;15.00;97.30;;;;;;4881369;29;20225;-75
2020/12/22 14:23:18;;;;;;;4.00;1.40;;;14.90;97.30;;;;;;4895769;29;20177;-75
2020/12/22 14:25:43;;;;;;;2.53;1.60;;;14.90;97.30;;;;;;4896035;29;20322;-75
2020/12/22 14:28:09;;;;;;;2.60;1.80;;;14.90;97.30;;;;;;4880562;29;20521;-76
2020/12/22 14:30:35;;;;;;;1.63;1.40;;;14.80;97.30;;;;;;4895792;29;20212;-76
2020/12/22 14:33:00;;;;;;;2.10;1.70;;;14.80;97.30;;;;;;4895609;29;20189;-76
2020/12/22 14:35:26;;;;;;;3.83;1.53;;;14.80;97.30;;;;;;4882898;29;20650;-77
2020/12/22 14:37:52;;;;;;;1.60;1.43;;;14.80;97.30;;;;;;4899063;29;20746;-76
2020/12/22 14:40:17;;;;;;;4.63;2.63;;;14.80;97.30;;;;;;4900059;29;20178;-75
2020/12/22 14:42:43;;;;;;;2.00;1.80;;;14.80;97.30;;;;;;4900196;29;20174;-75
2020/12/22 14:45:09;;;;;;;3.40;2.10;;;14.70;97.30;;;;;;4899648;29;20264;-75
2020/12/22 14:47:34;;;;;;;1.80;1.47;;;14.60;97.30;;;;;;4900005;29;20177;-76
2020/12/22 14:50:00;;;;;;;1.40;1.20;;;14.60;97.30;;;;;;4898460;29;20241;-75
2020/12/22 14:52:26;;;;;;;2.40;1.80;;;14.50;97.30;;;;;;4898477;29;20201;-76
2020/12/22 14:54:51;;;;;;;1.80;1.70;;;14.40;97.30;;;;;;4898353;29;20547;-74
2020/12/22 14:57:17;;;;;;;1.73;1.70;;;14.40;97.30;;;;;;4898116;29;20758;-76
2020/12/22 14:59:43;;;;;;;13.90;10.43;;;14.30;97.30;;;;;;4900056;29;20586;-76
2020/12/22 15:02:09;;;;;;;1.73;1.40;;;14.30;97.30;;;;;;4898397;29;20259;-76
2020/12/22 15:04:35;;;;;;;1.70;1.70;;;14.30;97.30;;;;;;4898282;29;20655;-75
2020/12/22 15:07:03;;;;;;;2.63;1.70;;;14.20;97.30;;;;;;4898859;29;20457;-75
2020/12/22 15:09:29;;;;;;;2.47;1.87;;;14.20;97.30;;;;;;4898878;29;20433;-75
2020/12/22 15:11:55;;;;;;;1.90;1.80;;;14.10;97.30;;;;;;4898406;29;20437;-75
2020/12/22 15:14:21;;;;;;;1.70;1.60;;;14.10;97.30;;;;;;4897337;29;20484;-75
2020/12/22 15:16:47;;;;;;;7.10;1.80;;;14.10;97.30;;;;;;4897777;29;20201;-75
2020/12/22 15:19:13;;;;;;;1.60;1.57;;;14.10;97.30;;;;;;4898488;29;20429;-74
2020/12/22 15:21:39;;;;;;;1.70;1.50;;;14.00;97.30;;;;;;4898030;29;20441;-74
2020/12/22 15:24:04;;;;;;;3.40;1.90;;;14.00;97.30;;;;;;4898014;29;20229;-75
2020/12/22 15:26:30;;;;;;;1.93;1.63;;;14.00;97.30;;;;;;4897942;29;20239;-75
2020/12/22 15:28:56;;;;;;;3.97;3.40;;;14.00;97.30;;;;;;4897965;29;20180;-75
2020/12/22 15:31:22;;;;;;;2.57;1.90;;;13.90;97.30;;;;;;4897733;29;20446;-75
2020/12/22 15:33:48;;;;;;;2.27;1.53;;;13.90;97.30;;;;;;4897523;29;20658;-76
2020/12/22 15:36:15;;;;;;;3.73;2.70;;;13.90;97.30;;;;;;4897752;29;20573;-75
2020/12/22 15:38:42;;;;;;;3.50;1.73;;;13.80;97.30;;;;;;4898279;29;20421;-76
2020/12/22 15:41:09;;;;;;;1.60;1.50;;;13.80;97.30;;;;;;4897832;29;20465;-74
2020/12/22 15:43:36;;;;;;;2.30;1.87;;;13.80;97.30;;;;;;4897717;29;20475;-75
2020/12/22 15:46:02;;;;;;;3.47;3.20;;;13.70;97.30;;;;;;4898582;29;20424;-75
2020/12/22 15:48:28;;;;;;;2.57;2.23;;;13.60;97.30;;;;;;4897732;29;20426;-75
2020/12/22 15:50:54;;;;;;;1.97;1.87;;;13.60;97.30;;;;;;4897888;29;20497;-75
2020/12/22 15:53:20;;;;;;;1.60;1.50;;;13.60;97.30;;;;;;4897548;29;20425;-75
2020/12/22 15:55:45;;;;;;;2.90;2.53;;;13.60;97.30;;;;;;4897409;29;20425;-74
2020/12/22 15:58:11;;;;;;;2.20;2.00;;;13.50;97.30;;;;;;4898174;29;20231;-74
2020/12/22 16:00:37;;;;;;;1.67;1.60;;;13.50;97.30;;;;;;4898081;29;20260;-75
2020/12/22 16:03:03;;;;;;;2.47;1.60;;;13.50;97.30;;;;;;4898376;29;20185;-75
2020/12/22 16:05:29;;;;;;;1.90;1.70;;;13.50;97.30;;;;;;4897320;29;20226;-74
2020/12/22 16:07:55;;;;;;;3.13;1.80;;;13.40;97.30;;;;;;4897340;29;20422;-75
2020/12/22 16:10:23;;;;;;;2.00;1.90;;;13.40;97.30;;;;;;4897366;29;20418;-75
2020/12/22 16:12:51;;;;;;;1.57;1.50;;;13.30;97.30;;;;;;4897782;29;20177;-74
2020/12/22 16:15:17;;;;;;;3.83;2.10;;;13.20;97.30;;;;;;4881453;29;20429;-75
2020/12/22 16:17:43;;;;;;;4.43;1.90;;;13.20;97.30;;;;;;4896915;29;20843;-74
2020/12/22 16:20:09;;;;;;;2.40;1.77;;;13.10;97.30;;;;;;4897213;29;20487;-73
2020/12/22 16:22:36;;;;;;;3.87;2.10;;;13.10;97.30;;;;;;4896870;29;20743;-72
2020/12/22 16:25:03;;;;;;;1.87;1.80;;;13.10;97.30;;;;;;4896893;29;20225;-72
2020/12/22 16:27:28;;;;;;;2.07;1.93;;;13.00;97.30;;;;;;4896620;29;20429;-73
2020/12/22 16:29:54;;;;;;;2.60;1.70;;;13.00;97.30;;;;;;4896570;29;20520;-74
2020/12/22 16:32:23;;;;;;;3.10;2.23;;;13.00;97.30;;;;;;4896480;29;20452;-72
2020/12/22 16:34:49;;;;;;;3.30;2.00;;;13.00;97.30;;;;;;4898540;29;20182;-72
2020/12/22 16:37:18;;;;;;;3.70;2.17;;;13.00;97.30;;;;;;4896238;29;20561;-73
2020/12/22 16:39:44;;;;;;;2.13;1.90;;;13.00;97.30;;;;;;4897126;29;20449;-73
2020/12/22 16:42:11;;;;;;;5.83;2.80;;;13.00;97.30;;;;;;4897693;29;20438;-74
2020/12/22 16:44:37;;;;;;;3.13;2.33;;;13.00;97.30;;;;;;4896459;29;20505;-73
2020/12/22 16:47:03;;;;;;;2.47;2.30;;;13.00;97.30;;;;;;4896663;29;20521;-73
2020/12/22 16:49:31;;;;;;;3.47;2.30;;;13.00;97.30;;;;;;4895196;29;20204;-73
2020/12/22 16:51:57;;;;;;;5.70;2.50;;;13.00;97.30;;;;;;4880742;29;20492;-73
2020/12/22 16:54:22;;;;;;;4.00;2.20;;;13.00;97.30;;;;;;4897597;29;20450;-74
2020/12/22 16:56:48;;;;;;;4.00;2.43;;;13.00;97.30;;;;;;4895797;29;20209;-72
2020/12/22 16:59:14;;;;;;;2.60;2.30;;;12.90;97.30;;;;;;4896018;29;20224;-73
2020/12/22 17:01:39;;;;;;;3.30;2.40;;;12.90;97.30;;;;;;4895978;29;20261;-73
2020/12/22 17:04:05;;;;;;;2.50;2.40;;;12.90;97.30;;;;;;4896546;29;20185;-73
2020/12/22 17:06:36;;;;;;;2.40;2.30;;;12.90;97.30;;;;;;4896233;29;20325;-72
2020/12/22 17:09:03;;;;;;;2.20;2.03;;;13.00;97.30;;;;;;4896514;29;20221;-73
2020/12/22 17:11:29;;;;;;;4.47;2.33;;;13.00;97.30;;;;;;4895523;29;20445;-72
2020/12/22 17:13:55;;;;;;;4.27;2.50;;;13.00;97.30;;;;;;4896016;29;20433;-73
2020/12/22 17:16:21;;;;;;;3.60;2.70;;;13.00;97.30;;;;;;4896166;29;20189;-72
2020/12/22 17:18:47;;;;;;;3.20;2.30;;;13.00;97.30;;;;;;4895868;29;20192;-73
2020/12/22 17:21:13;;;;;;;2.60;2.10;;;13.00;97.30;;;;;;4896434;29;20201;-74
2020/12/22 17:23:39;;;;;;;2.43;2.30;;;13.00;97.30;;;;;;4897555;29;20406;-74
2020/12/22 17:26:04;;;;;;;4.13;2.30;;;13.00;97.30;;;;;;4897499;29;20489;-74
2020/12/22 17:28:33;;;;;;;2.30;2.10;;;12.90;97.30;;;;;;4896085;29;20181;-75
2020/12/22 17:30:59;;;;;;;4.50;3.20;;;12.90;97.30;;;;;;4896252;29;20208;-74
2020/12/22 17:33:25;;;;;;;6.27;3.63;;;12.90;97.30;;;;;;4895991;29;20422;-73
2020/12/22 17:35:51;;;;;;;4.77;2.90;;;12.90;97.30;;;;;;4897616;29;20425;-74
2020/12/22 17:38:16;;;;;;;2.53;2.40;;;12.80;97.30;;;;;;4900567;29;20509;-74
2020/12/22 17:40:42;;;;;;;2.67;2.47;;;12.80;97.30;;;;;;4899471;29;20445;-75
2020/12/22 17:43:08;;;;;;;4.33;2.90;;;12.80;97.30;;;;;;4899609;29;20189;-74
2020/12/22 17:45:34;;;;;;;3.23;2.80;;;12.80;97.30;;;;;;4899858;29;20204;-75
2020/12/22 17:47:59;;;;;;;12.53;6.20;;;12.80;97.30;;;;;;4899350;29;20185;-74
2020/12/22 17:50:25;;;;;;;12.13;6.67;;;12.80;97.30;;;;;;4899307;29;20196;-75
2020/12/22 17:52:51;;;;;;;10.03;5.47;;;12.70;97.30;;;;;;4900145;29;20775;-74
2020/12/22 17:55:16;;;;;;;3.43;2.67;;;12.70;97.30;;;;;;4899692;29;20458;-73
2020/12/22 17:57:42;;;;;;;3.20;2.83;;;12.70;97.30;;;;;;4899575;29;20221;-74
2020/12/22 18:00:08;;;;;;;10.03;3.80;;;12.70;97.30;;;;;;4900838;29;20189;-74
2020/12/22 18:02:34;;;;;;;2.80;2.30;;;12.70;97.30;;;;;;4899089;29;20273;-73
2020/12/22 18:05:00;;;;;;;3.70;2.63;;;12.70;97.30;;;;;;4899730;29;20422;-74
2020/12/22 18:07:31;;;;;;;4.67;3.70;;;12.70;97.30;;;;;;4899670;29;20181;-73
2020/12/22 18:10:01;;;;;;;4.87;3.53;;;12.70;97.30;;;;;;4898908;29;20636;-74
2020/12/22 18:12:28;;;;;;;5.87;3.40;;;12.60;97.30;;;;;;4899353;29;21063;-74
2020/12/22 18:14:54;;;;;;;6.47;5.30;;;12.60;97.30;;;;;;4899044;29;20505;-74
2020/12/22 18:17:21;;;;;;;9.77;7.67;;;12.60;97.30;;;;;;4898073;29;20541;-74
2020/12/22 18:19:49;;;;;;;8.50;5.00;;;12.60;97.30;;;;;;4898970;29;20525;-74
2020/12/22 18:22:18;;;;;;;7.87;4.57;;;12.60;97.30;;;;;;4898428;29;20449;-75
2020/12/22 18:24:45;;;;;;;6.00;3.87;;;12.70;97.30;;;;;;4899842;29;20911;-74
2020/12/22 18:27:11;;;;;;;5.87;3.70;;;12.60;97.30;;;;;;4898711;29;20781;-74
2020/12/22 18:29:38;;;;;;;10.40;4.03;;;12.60;97.30;;;;;;4899051;29;20430;-75
2020/12/22 18:32:03;;;;;;;6.33;3.87;;;12.60;97.30;;;;;;4899588;29;20810;-74
2020/12/22 18:34:29;;;;;;;7.60;4.43;;;12.60;97.30;;;;;;4900120;29;20433;-73
2020/12/22 18:36:55;;;;;;;7.40;4.27;;;12.60;97.30;;;;;;4898814;29;20205;-74
2020/12/22 18:39:21;;;;;;;10.13;3.63;;;12.60;97.30;;;;;;4898830;29;20189;-74
2020/12/22 18:41:46;;;;;;;4.73;2.97;;;12.60;97.30;;;;;;4900529;29;20208;-74
2020/12/22 18:44:12;;;;;;;6.00;3.87;;;12.60;97.30;;;;;;4900335;29;20547;-74
2020/12/22 18:46:38;;;;;;;4.13;3.47;;;12.60;97.30;;;;;;4898719;29;20651;-74
2020/12/22 18:49:04;;;;;;;3.90;3.37;;;12.60;97.30;;;;;;4899408;29;20237;-74